sensor_id;sensor_type;location;lat;lon;timestamp;temperature;humidity
8220;DHT22;4151;51.110;7.020;2023-11-21T00:01:57;7.20;99.90
8220;DHT22;4151;51.110;7.020;2023-11-21T00:04:23;7.10;99.90
8220;DHT22;4151;51.110;7.020;2023-11-21T00:06:49;7.10;99.90
8220;DHT22;4151;51.110;7.020;2023-11-21T00:09:15;7.10;99.90
8220;DHT22;4151;51.110;7.020;2023-11-21T00:11:41;7.00;99.90
8220;DHT22;4151;51.110;7.020;2023-11-21T00:14:07;6.90;99.90
8220;DHT22;4151;51.110;7.020;2023-11-21T00:16:33;6.90;99.90
8220;DHT22;4151;51.110;7.020;2023-11-21T00:18:59;6.80;99.90
8220;DHT22;4151;51.110;7.020;2023-11-21T00:21:25;6.90;99.90
8220;DHT22;4151;51.110;7.020;2023-11-21T00:23:50;6.80;99.90
8220;DHT22;4151;51.110;7.020;2023-11-21T00:26:16;6.70;99.90
8220;DHT22;4151;51.110;7.020;2023-11-21T00:28:42;6.70;99.90
8220;DHT22;4151;51.110;7.020;2023-11-21T00:31:07;6.70;99.90
8220;DHT22;4151;51.110;7.020;2023-11-21T00:33:33;6.70;99.90
8220;DHT22;4151;51.110;7.020;2023-11-21T00:35:59;6.60;99.90
8220;DHT22;4151;51.110;7.020;2023-11-21T00:38:24;6.60;99.90
8220;DHT22;4151;51.110;7.020;2023-11-21T00:40:50;6.60;99.90
8220;DHT22;4151;51.110;7.020;2023-11-21T00:43:15;6.60;99.90
8220;DHT22;4151;51.110;7.020;2023-11-21T00:45:41;6.50;99.90
8220;DHT22;4151;51.110;7.020;2023-11-21T00:48:07;6.50;99.90
8220;DHT22;4151;51.110;7.020;2023-11-21T00:50:33;6.50;99.90
8220;DHT22;4151;51.110;7.020;2023-11-21T00:52:59;6.50;99.90
8220;DHT22;4151;51.110;7.020;2023-11-21T00:55:25;6.50;99.90
8220;DHT22;4151;51.110;7.020;2023-11-21T00:57:51;6.50;99.90
8220;DHT22;4151;51.110;7.020;2023-11-21T01:00:17;6.50;99.90
8220;DHT22;4151;51.110;7.020;2023-11-21T01:02:46;6.50;99.90
8220;DHT22;4151;51.110;7.020;2023-11-21T01:05:12;6.50;99.90
8220;DHT22;4151;51.110;7.020;2023-11-21T01:07:38;6.60;99.90
8220;DHT22;4151;51.110;7.020;2023-11-21T01:10:05;6.60;99.90
8220;DHT22;4151;51.110;7.020;2023-11-21T01:12:35;6.70;99.90
8220;DHT22;4151;51.110;7.020;2023-11-21T01:15:03;6.70;99.90
8220;DHT22;4151;51.110;7.020;2023-11-21T01:17:29;6.70;99.90
8220;DHT22;4151;51.110;7.020;2023-11-21T01:19:54;6.70;99.90
8220;DHT22;4151;51.110;7.020;2023-11-21T01:22:21;6.80;99.90
8220;DHT22;4151;51.110;7.020;2023-11-21T01:24:54;6.80;99.90
8220;DHT22;4151;51.110;7.020;2023-11-21T01:27:20;6.80;99.90
8220;DHT22;4151;51.110;7.020;2023-11-21T01:29:45;6.80;99.90
8220;DHT22;4151;51.110;7.020;2023-11-21T01:32:11;6.70;99.90
8220;DHT22;4151;51.110;7.020;2023-11-21T01:34:37;6.60;99.90
8220;DHT22;4151;51.110;7.020;2023-11-21T01:37:03;6.60;99.90
8220;DHT22;4151;51.110;7.020;2023-11-21T01:39:30;6.50;99.90
8220;DHT22;4151;51.110;7.020;2023-11-21T01:41:56;6.50;99.90
8220;DHT22;4151;51.110;7.020;2023-11-21T01:44:24;6.50;99.90
8220;DHT22;4151;51.110;7.020;2023-11-21T01:46:50;6.60;99.90
8220;DHT22;4151;51.110;7.020;2023-11-21T01:49:16;6.60;99.90
8220;DHT22;4151;51.110;7.020;2023-11-21T01:51:45;6.60;99.90
8220;DHT22;4151;51.110;7.020;2023-11-21T01:54:12;6.60;99.90
8220;DHT22;4151;51.110;7.020;2023-11-21T01:56:38;6.60;99.90
8220;DHT22;4151;51.110;7.020;2023-11-21T01:59:04;6.70;99.90
8220;DHT22;4151;51.110;7.020;2023-11-21T02:01:30;6.70;99.90
8220;DHT22;4151;51.110;7.020;2023-11-21T02:03:56;6.70;99.90
8220;DHT22;4151;51.110;7.020;2023-11-21T02:06:22;6.80;99.90
8220;DHT22;4151;51.110;7.020;2023-11-21T02:08:48;6.80;99.90
8220;DHT22;4151;51.110;7.020;2023-11-21T02:11:14;6.80;99.90
8220;DHT22;4151;51.110;7.020;2023-11-21T02:13:39;6.80;99.90
8220;DHT22;4151;51.110;7.020;2023-11-21T02:16:12;6.90;99.90
8220;DHT22;4151;51.110;7.020;2023-11-21T02:18:39;7.00;99.90
8220;DHT22;4151;51.110;7.020;2023-11-21T02:21:05;7.00;99.90
8220;DHT22;4151;51.110;7.020;2023-11-21T02:23:31;7.00;99.90
8220;DHT22;4151;51.110;7.020;2023-11-21T02:25:56;7.10;99.90
8220;DHT22;4151;51.110;7.020;2023-11-21T02:28:22;7.00;99.90
8220;DHT22;4151;51.110;7.020;2023-11-21T02:30:52;7.00;99.90
8220;DHT22;4151;51.110;7.020;2023-11-21T02:33:22;6.90;99.90
8220;DHT22;4151;51.110;7.020;2023-11-21T02:35:48;7.00;99.90
8220;DHT22;4151;51.110;7.020;2023-11-21T02:38:13;7.00;99.90
8220;DHT22;4151;51.110;7.020;2023-11-21T02:40:39;7.00;99.90
8220;DHT22;4151;51.110;7.020;2023-11-21T02:43:05;7.10;99.90
8220;DHT22;4151;51.110;7.020;2023-11-21T02:45:31;7.10;99.90
8220;DHT22;4151;51.110;7.020;2023-11-21T02:47:57;7.10;99.90
8220;DHT22;4151;51.110;7.020;2023-11-21T02:50:23;7.20;99.90
8220;DHT22;4151;51.110;7.020;2023-11-21T02:52:49;7.20;99.90
8220;DHT22;4151;51.110;7.020;2023-11-21T02:55:15;7.20;99.90
8220;DHT22;4151;51.110;7.020;2023-11-21T02:57:41;7.10;99.90
8220;DHT22;4151;51.110;7.020;2023-11-21T03:00:07;7.10;99.90
8220;DHT22;4151;51.110;7.020;2023-11-21T03:02:33;7.20;99.90
8220;DHT22;4151;51.110;7.020;2023-11-21T03:05:02;7.20;99.90
8220;DHT22;4151;51.110;7.020;2023-11-21T03:07:27;7.20;99.90
8220;DHT22;4151;51.110;7.020;2023-11-21T03:09:53;7.20;99.90
8220;DHT22;4151;51.110;7.020;2023-11-21T03:12:19;7.20;99.90
8220;DHT22;4151;51.110;7.020;2023-11-21T03:14:45;7.30;99.90
8220;DHT22;4151;51.110;7.020;2023-11-21T03:17:10;7.30;99.90
8220;DHT22;4151;51.110;7.020;2023-11-21T03:19:37;7.30;99.90
8220;DHT22;4151;51.110;7.020;2023-11-21T03:22:02;7.30;99.90
8220;DHT22;4151;51.110;7.020;2023-11-21T03:24:29;7.20;99.90
8220;DHT22;4151;51.110;7.020;2023-11-21T03:26:55;7.20;99.90
8220;DHT22;4151;51.110;7.020;2023-11-21T03:29:21;7.20;99.90
8220;DHT22;4151;51.110;7.020;2023-11-21T03:31:47;7.20;99.90
8220;DHT22;4151;51.110;7.020;2023-11-21T03:34:23;7.20;99.90
8220;DHT22;4151;51.110;7.020;2023-11-21T03:36:49;7.20;99.90
8220;DHT22;4151;51.110;7.020;2023-11-21T03:39:14;7.10;99.90
8220;DHT22;4151;51.110;7.020;2023-11-21T03:41:40;7.10;99.90
8220;DHT22;4151;51.110;7.020;2023-11-21T03:44:05;7.20;99.90
8220;DHT22;4151;51.110;7.020;2023-11-21T03:46:31;7.20;99.90
8220;DHT22;4151;51.110;7.020;2023-11-21T03:48:56;7.20;99.90
8220;DHT22;4151;51.110;7.020;2023-11-21T03:51:22;7.20;99.90
8220;DHT22;4151;51.110;7.020;2023-11-21T03:53:47;7.20;99.90
8220;DHT22;4151;51.110;7.020;2023-11-21T03:56:14;7.20;99.90
8220;DHT22;4151;51.110;7.020;2023-11-21T03:58:40;7.20;99.90
8220;DHT22;4151;51.110;7.020;2023-11-21T04:01:05;7.20;99.90
8220;DHT22;4151;51.110;7.020;2023-11-21T04:03:31;7.20;99.90
8220;DHT22;4151;51.110;7.020;2023-11-21T04:05:57;7.20;99.90
8220;DHT22;4151;51.110;7.020;2023-11-21T04:08:22;7.20;99.90
8220;DHT22;4151;51.110;7.020;2023-11-21T04:10:48;7.20;99.90
8220;DHT22;4151;51.110;7.020;2023-11-21T04:13:14;7.20;99.90
8220;DHT22;4151;51.110;7.020;2023-11-21T04:15:40;7.20;99.90
8220;DHT22;4151;51.110;7.020;2023-11-21T04:18:05;7.30;99.90
8220;DHT22;4151;51.110;7.020;2023-11-21T04:20:31;7.30;99.90
8220;DHT22;4151;51.110;7.020;2023-11-21T04:22:57;7.30;99.90
8220;DHT22;4151;51.110;7.020;2023-11-21T04:25:23;7.30;99.90
8220;DHT22;4151;51.110;7.020;2023-11-21T04:27:48;7.30;99.90
8220;DHT22;4151;51.110;7.020;2023-11-21T04:30:15;7.30;99.90
8220;DHT22;4151;51.110;7.020;2023-11-21T04:32:40;7.30;99.90
8220;DHT22;4151;51.110;7.020;2023-11-21T04:35:07;7.30;99.90
8220;DHT22;4151;51.110;7.020;2023-11-21T04:37:34;7.20;99.90
8220;DHT22;4151;51.110;7.020;2023-11-21T04:39:59;7.20;99.90
8220;DHT22;4151;51.110;7.020;2023-11-21T04:42:25;7.20;99.90
8220;DHT22;4151;51.110;7.020;2023-11-21T04:44:51;7.30;99.90
8220;DHT22;4151;51.110;7.020;2023-11-21T04:47:18;7.30;99.90
8220;DHT22;4151;51.110;7.020;2023-11-21T04:49:46;7.30;99.90
8220;DHT22;4151;51.110;7.020;2023-11-21T04:52:12;7.30;99.90
8220;DHT22;4151;51.110;7.020;2023-11-21T04:54:38;7.30;99.90
8220;DHT22;4151;51.110;7.020;2023-11-21T04:57:05;7.20;99.90
8220;DHT22;4151;51.110;7.020;2023-11-21T04:59:33;7.20;99.90
8220;DHT22;4151;51.110;7.020;2023-11-21T05:01:58;7.20;99.90
8220;DHT22;4151;51.110;7.020;2023-11-21T05:04:25;7.30;99.90
8220;DHT22;4151;51.110;7.020;2023-11-21T05:06:51;7.30;99.90
8220;DHT22;4151;51.110;7.020;2023-11-21T05:09:16;7.20;99.90
8220;DHT22;4151;51.110;7.020;2023-11-21T05:11:43;7.20;99.90
8220;DHT22;4151;51.110;7.020;2023-11-21T05:14:08;7.20;99.90
8220;DHT22;4151;51.110;7.020;2023-11-21T05:16:34;7.10;99.90
8220;DHT22;4151;51.110;7.020;2023-11-21T05:19:00;7.10;99.90
8220;DHT22;4151;51.110;7.020;2023-11-21T05:21:30;7.10;99.90
8220;DHT22;4151;51.110;7.020;2023-11-21T05:23:58;7.10;99.90
8220;DHT22;4151;51.110;7.020;2023-11-21T05:26:24;7.10;99.90
8220;DHT22;4151;51.110;7.020;2023-11-21T05:28:50;7.10;99.90
8220;DHT22;4151;51.110;7.020;2023-11-21T05:31:15;7.20;99.90
8220;DHT22;4151;51.110;7.020;2023-11-21T05:33:41;7.10;99.90
8220;DHT22;4151;51.110;7.020;2023-11-21T05:36:07;7.20;99.90
8220;DHT22;4151;51.110;7.020;2023-11-21T05:38:33;7.20;99.90
8220;DHT22;4151;51.110;7.020;2023-11-21T05:40:59;7.10;99.90
8220;DHT22;4151;51.110;7.020;2023-11-21T05:43:25;7.10;99.90
8220;DHT22;4151;51.110;7.020;2023-11-21T05:45:50;7.10;99.90
8220;DHT22;4151;51.110;7.020;2023-11-21T05:48:16;7.10;99.90
8220;DHT22;4151;51.110;7.020;2023-11-21T05:50:41;7.10;99.90
8220;DHT22;4151;51.110;7.020;2023-11-21T05:53:07;7.10;99.90
8220;DHT22;4151;51.110;7.020;2023-11-21T05:55:32;7.10;99.90
8220;DHT22;4151;51.110;7.020;2023-11-21T05:57:58;7.10;99.90
8220;DHT22;4151;51.110;7.020;2023-11-21T06:00:24;7.10;99.90
8220;DHT22;4151;51.110;7.020;2023-11-21T06:02:52;7.10;99.90
8220;DHT22;4151;51.110;7.020;2023-11-21T06:05:22;7.00;99.90
8220;DHT22;4151;51.110;7.020;2023-11-21T06:07:49;7.00;99.90
8220;DHT22;4151;51.110;7.020;2023-11-21T06:10:16;7.00;99.90
8220;DHT22;4151;51.110;7.020;2023-11-21T06:12:43;7.00;99.90
8220;DHT22;4151;51.110;7.020;2023-11-21T06:15:09;7.00;99.90
8220;DHT22;4151;51.110;7.020;2023-11-21T06:17:37;6.90;99.90
8220;DHT22;4151;51.110;7.020;2023-11-21T06:20:07;6.90;99.90
8220;DHT22;4151;51.110;7.020;2023-11-21T06:22:37;6.90;99.90
8220;DHT22;4151;51.110;7.020;2023-11-21T06:25:03;7.00;99.90
8220;DHT22;4151;51.110;7.020;2023-11-21T06:27:38;7.00;99.90
8220;DHT22;4151;51.110;7.020;2023-11-21T06:30:04;7.00;99.90
8220;DHT22;4151;51.110;7.020;2023-11-21T06:32:30;7.00;99.90
8220;DHT22;4151;51.110;7.020;2023-11-21T06:34:56;7.00;99.90
8220;DHT22;4151;51.110;7.020;2023-11-21T06:37:25;7.10;99.90
8220;DHT22;4151;51.110;7.020;2023-11-21T06:39:50;7.20;99.90
8220;DHT22;4151;51.110;7.020;2023-11-21T06:42:17;7.20;99.90
8220;DHT22;4151;51.110;7.020;2023-11-21T06:44:45;7.30;99.90
8220;DHT22;4151;51.110;7.020;2023-11-21T06:47:10;7.30;99.90
8220;DHT22;4151;51.110;7.020;2023-11-21T06:49:36;7.30;99.90
8220;DHT22;4151;51.110;7.020;2023-11-21T06:52:02;7.40;99.90
8220;DHT22;4151;51.110;7.020;2023-11-21T06:54:28;7.40;99.90
8220;DHT22;4151;51.110;7.020;2023-11-21T06:56:54;7.50;99.90
8220;DHT22;4151;51.110;7.020;2023-11-21T06:59:22;7.50;99.90
8220;DHT22;4151;51.110;7.020;2023-11-21T07:01:47;7.60;99.90
8220;DHT22;4151;51.110;7.020;2023-11-21T07:04:13;7.60;99.90
8220;DHT22;4151;51.110;7.020;2023-11-21T07:06:38;7.70;99.90
8220;DHT22;4151;51.110;7.020;2023-11-21T07:09:04;7.60;99.90
8220;DHT22;4151;51.110;7.020;2023-11-21T07:11:30;7.60;99.90
8220;DHT22;4151;51.110;7.020;2023-11-21T07:13:55;7.60;99.90
8220;DHT22;4151;51.110;7.020;2023-11-21T07:16:21;7.60;99.90
8220;DHT22;4151;51.110;7.020;2023-11-21T07:18:47;7.70;99.90
8220;DHT22;4151;51.110;7.020;2023-11-21T07:21:14;7.60;99.90
8220;DHT22;4151;51.110;7.020;2023-11-21T07:23:41;7.70;99.90
8220;DHT22;4151;51.110;7.020;2023-11-21T07:26:06;7.70;99.90
8220;DHT22;4151;51.110;7.020;2023-11-21T07:28:35;7.80;99.90
8220;DHT22;4151;51.110;7.020;2023-11-21T07:31:01;7.80;99.90
8220;DHT22;4151;51.110;7.020;2023-11-21T07:33:27;7.90;99.90
8220;DHT22;4151;51.110;7.020;2023-11-21T07:35:52;7.80;99.90
8220;DHT22;4151;51.110;7.020;2023-11-21T07:38:18;7.70;99.90
8220;DHT22;4151;51.110;7.020;2023-11-21T07:40:43;7.80;99.90
8220;DHT22;4151;51.110;7.020;2023-11-21T07:43:09;7.80;99.90
8220;DHT22;4151;51.110;7.020;2023-11-21T07:45:36;7.80;99.90
8220;DHT22;4151;51.110;7.020;2023-11-21T07:48:02;7.80;99.90
8220;DHT22;4151;51.110;7.020;2023-11-21T07:50:29;7.90;99.90
8220;DHT22;4151;51.110;7.020;2023-11-21T07:52:54;8.00;99.90
8220;DHT22;4151;51.110;7.020;2023-11-21T07:55:20;8.00;99.90
8220;DHT22;4151;51.110;7.020;2023-11-21T07:57:46;8.10;99.90
8220;DHT22;4151;51.110;7.020;2023-11-21T08:00:12;8.20;99.90
8220;DHT22;4151;51.110;7.020;2023-11-21T08:02:39;8.20;99.90
8220;DHT22;4151;51.110;7.020;2023-11-21T08:05:05;8.30;99.90
8220;DHT22;4151;51.110;7.020;2023-11-21T08:07:33;8.40;99.90
8220;DHT22;4151;51.110;7.020;2023-11-21T08:09:59;8.40;99.90
8220;DHT22;4151;51.110;7.020;2023-11-21T08:12:24;8.40;99.90
8220;DHT22;4151;51.110;7.020;2023-11-21T08:14:52;8.40;99.90
8220;DHT22;4151;51.110;7.020;2023-11-21T08:17:17;8.50;99.90
8220;DHT22;4151;51.110;7.020;2023-11-21T08:19:45;8.40;99.90
8220;DHT22;4151;51.110;7.020;2023-11-21T08:22:17;8.30;99.90
8220;DHT22;4151;51.110;7.020;2023-11-21T08:24:43;8.20;99.90
8220;DHT22;4151;51.110;7.020;2023-11-21T08:27:09;8.20;99.90
8220;DHT22;4151;51.110;7.020;2023-11-21T08:29:35;8.20;99.90
8220;DHT22;4151;51.110;7.020;2023-11-21T08:32:02;8.30;99.90
8220;DHT22;4151;51.110;7.020;2023-11-21T08:34:27;8.30;99.90
8220;DHT22;4151;51.110;7.020;2023-11-21T08:36:54;8.30;99.90
8220;DHT22;4151;51.110;7.020;2023-11-21T08:39:21;8.30;99.90
8220;DHT22;4151;51.110;7.020;2023-11-21T08:41:49;8.50;99.90
8220;DHT22;4151;51.110;7.020;2023-11-21T08:44:16;8.50;99.90
8220;DHT22;4151;51.110;7.020;2023-11-21T08:46:44;8.60;99.90
8220;DHT22;4151;51.110;7.020;2023-11-21T08:49:11;8.70;99.90
8220;DHT22;4151;51.110;7.020;2023-11-21T08:51:37;8.70;99.90
8220;DHT22;4151;51.110;7.020;2023-11-21T08:54:03;8.90;99.90
8220;DHT22;4151;51.110;7.020;2023-11-21T08:56:30;8.90;99.90
8220;DHT22;4151;51.110;7.020;2023-11-21T08:58:56;8.90;99.90
8220;DHT22;4151;51.110;7.020;2023-11-21T09:01:22;8.90;99.90
8220;DHT22;4151;51.110;7.020;2023-11-21T09:03:48;9.10;99.90
8220;DHT22;4151;51.110;7.020;2023-11-21T09:06:15;9.10;99.90
8220;DHT22;4151;51.110;7.020;2023-11-21T09:08:40;9.10;99.90
8220;DHT22;4151;51.110;7.020;2023-11-21T09:11:07;9.20;99.90
8220;DHT22;4151;51.110;7.020;2023-11-21T09:13:33;9.30;99.90
8220;DHT22;4151;51.110;7.020;2023-11-21T09:16:00;9.40;99.90
8220;DHT22;4151;51.110;7.020;2023-11-21T09:18:25;9.50;99.90
8220;DHT22;4151;51.110;7.020;2023-11-21T09:20:51;9.50;99.90
8220;DHT22;4151;51.110;7.020;2023-11-21T09:23:16;9.60;99.90
8220;DHT22;4151;51.110;7.020;2023-11-21T09:25:42;9.60;99.90
8220;DHT22;4151;51.110;7.020;2023-11-21T09:28:11;9.60;99.90
8220;DHT22;4151;51.110;7.020;2023-11-21T09:30:37;9.70;99.90
8220;DHT22;4151;51.110;7.020;2023-11-21T09:33:03;9.80;99.90
8220;DHT22;4151;51.110;7.020;2023-11-21T09:35:38;9.80;99.90
8220;DHT22;4151;51.110;7.020;2023-11-21T09:38:04;9.90;99.90
8220;DHT22;4151;51.110;7.020;2023-11-21T09:40:36;9.90;99.90
8220;DHT22;4151;51.110;7.020;2023-11-21T09:43:06;9.80;99.90
8220;DHT22;4151;51.110;7.020;2023-11-21T09:45:35;9.80;99.90
8220;DHT22;4151;51.110;7.020;2023-11-21T09:48:01;9.70;99.90
8220;DHT22;4151;51.110;7.020;2023-11-21T09:50:27;9.60;99.90
8220;DHT22;4151;51.110;7.020;2023-11-21T09:55:42;9.60;99.90
8220;DHT22;4151;51.110;7.020;2023-11-21T09:58:09;9.50;99.90
8220;DHT22;4151;51.110;7.020;2023-11-21T10:00:46;9.60;99.90
8220;DHT22;4151;51.110;7.020;2023-11-21T10:03:11;9.50;99.90
8220;DHT22;4151;51.110;7.020;2023-11-21T10:05:39;9.50;99.90
8220;DHT22;4151;51.110;7.020;2023-11-21T10:08:07;9.50;99.90
8220;DHT22;4151;51.110;7.020;2023-11-21T10:10:35;9.50;99.90
8220;DHT22;4151;51.110;7.020;2023-11-21T10:13:03;9.50;99.90
8220;DHT22;4151;51.110;7.020;2023-11-21T10:15:36;9.40;99.90
8220;DHT22;4151;51.110;7.020;2023-11-21T10:18:06;9.50;99.90
8220;DHT22;4151;51.110;7.020;2023-11-21T10:20:33;9.60;99.90
8220;DHT22;4151;51.110;7.020;2023-11-21T10:22:59;9.70;99.90
8220;DHT22;4151;51.110;7.020;2023-11-21T10:25:27;9.70;99.90
8220;DHT22;4151;51.110;7.020;2023-11-21T10:27:58;9.70;99.90
8220;DHT22;4151;51.110;7.020;2023-11-21T10:30:36;9.70;99.90
8220;DHT22;4151;51.110;7.020;2023-11-21T10:33:06;9.70;99.90
8220;DHT22;4151;51.110;7.020;2023-11-21T10:38:05;9.80;99.90
8220;DHT22;4151;51.110;7.020;2023-11-21T10:40:31;9.90;99.90
8220;DHT22;4151;51.110;7.020;2023-11-21T10:43:06;10.00;99.90
8220;DHT22;4151;51.110;7.020;2023-11-21T10:45:34;10.20;99.90
8220;DHT22;4151;51.110;7.020;2023-11-21T10:48:00;10.20;99.90
8220;DHT22;4151;51.110;7.020;2023-11-21T10:50:26;10.20;99.90
8220;DHT22;4151;51.110;7.020;2023-11-21T10:52:52;10.30;99.90
8220;DHT22;4151;51.110;7.020;2023-11-21T10:55:18;10.10;99.90
8220;DHT22;4151;51.110;7.020;2023-11-21T10:57:52;10.10;99.90
8220;DHT22;4151;51.110;7.020;2023-11-21T11:00:18;10.10;99.90
8220;DHT22;4151;51.110;7.020;2023-11-21T11:02:49;10.10;99.90
8220;DHT22;4151;51.110;7.020;2023-11-21T11:05:20;10.10;99.90
8220;DHT22;4151;51.110;7.020;2023-11-21T11:07:58;10.00;99.90
8220;DHT22;4151;51.110;7.020;2023-11-21T11:10:28;10.10;99.90
8220;DHT22;4151;51.110;7.020;2023-11-21T11:12:55;10.10;99.90
8220;DHT22;4151;51.110;7.020;2023-11-21T11:15:21;10.20;99.90
8220;DHT22;4151;51.110;7.020;2023-11-21T11:17:48;10.30;99.90
8220;DHT22;4151;51.110;7.020;2023-11-21T11:20:15;10.20;99.90
8220;DHT22;4151;51.110;7.020;2023-11-21T11:34:39;9.80;99.90
8220;DHT22;4151;51.110;7.020;2023-11-21T11:37:07;9.70;99.90
8220;DHT22;4151;51.110;7.020;2023-11-21T11:39:38;9.60;99.90
8220;DHT22;4151;51.110;7.020;2023-11-21T11:42:08;9.70;99.90
8220;DHT22;4151;51.110;7.020;2023-11-21T11:44:52;9.70;99.90
8220;DHT22;4151;51.110;7.020;2023-11-21T11:47:28;9.90;99.90
8220;DHT22;4151;51.110;7.020;2023-11-21T11:52:50;10.10;99.90
8220;DHT22;4151;51.110;7.020;2023-11-21T11:55:18;10.30;99.90
8220;DHT22;4151;51.110;7.020;2023-11-21T11:57:48;10.30;99.90
8220;DHT22;4151;51.110;7.020;2023-11-21T12:02:47;10.10;99.90
8220;DHT22;4151;51.110;7.020;2023-11-21T12:05:14;10.10;99.90
8220;DHT22;4151;51.110;7.020;2023-11-21T12:07:51;10.10;99.90
8220;DHT22;4151;51.110;7.020;2023-11-21T12:10:29;10.10;99.90
8220;DHT22;4151;51.110;7.020;2023-11-21T12:12:57;10.10;99.90
8220;DHT22;4151;51.110;7.020;2023-11-21T12:15:23;10.20;99.90
8220;DHT22;4151;51.110;7.020;2023-11-21T12:17:50;10.20;99.90
8220;DHT22;4151;51.110;7.020;2023-11-21T12:20:19;10.30;99.90
8220;DHT22;4151;51.110;7.020;2023-11-21T12:22:46;10.40;99.90
8220;DHT22;4151;51.110;7.020;2023-11-21T12:25:19;10.40;99.90
8220;DHT22;4151;51.110;7.020;2023-11-21T12:27:52;10.40;99.90
8220;DHT22;4151;51.110;7.020;2023-11-21T12:30:19;10.40;99.90
8220;DHT22;4151;51.110;7.020;2023-11-21T12:32:51;10.50;99.90
8220;DHT22;4151;51.110;7.020;2023-11-21T12:35:18;10.70;99.90
8220;DHT22;4151;51.110;7.020;2023-11-21T12:37:47;10.90;99.90
8220;DHT22;4151;51.110;7.020;2023-11-21T12:40:14;11.10;99.90
8220;DHT22;4151;51.110;7.020;2023-11-21T12:42:45;11.30;99.90
8220;DHT22;4151;51.110;7.020;2023-11-21T12:45:24;11.50;99.90
8220;DHT22;4151;51.110;7.020;2023-11-21T12:47:58;11.50;99.90
8220;DHT22;4151;51.110;7.020;2023-11-21T12:50:26;11.50;99.90
8220;DHT22;4151;51.110;7.020;2023-11-21T12:52:59;11.40;99.90
8220;DHT22;4151;51.110;7.020;2023-11-21T12:55:25;11.30;99.90
8220;DHT22;4151;51.110;7.020;2023-11-21T12:57:52;11.20;99.90
8220;DHT22;4151;51.110;7.020;2023-11-21T13:00:20;11.30;99.90
8220;DHT22;4151;51.110;7.020;2023-11-21T13:02:57;11.40;99.90
8220;DHT22;4151;51.110;7.020;2023-11-21T13:05:25;11.30;99.90
8220;DHT22;4151;51.110;7.020;2023-11-21T13:07:50;11.10;99.90
8220;DHT22;4151;51.110;7.020;2023-11-21T13:10:22;11.10;99.90
8220;DHT22;4151;51.110;7.020;2023-11-21T13:12:52;11.10;99.90
8220;DHT22;4151;51.110;7.020;2023-11-21T13:15:17;11.00;99.90
8220;DHT22;4151;51.110;7.020;2023-11-21T13:17:43;10.70;99.90
8220;DHT22;4151;51.110;7.020;2023-11-21T13:20:13;10.60;99.90
8220;DHT22;4151;51.110;7.020;2023-11-21T13:22:52;10.60;99.90
8220;DHT22;4151;51.110;7.020;2023-11-21T13:25:28;10.60;99.90
8220;DHT22;4151;51.110;7.020;2023-11-21T13:28:00;10.50;99.90
8220;DHT22;4151;51.110;7.020;2023-11-21T13:30:29;10.40;99.90
8220;DHT22;4151;51.110;7.020;2023-11-21T13:33:04;10.50;99.90
8220;DHT22;4151;51.110;7.020;2023-11-21T13:35:42;10.50;99.90
8220;DHT22;4151;51.110;7.020;2023-11-21T13:38:12;10.60;99.90
8220;DHT22;4151;51.110;7.020;2023-11-21T13:40:40;10.60;99.90
8220;DHT22;4151;51.110;7.020;2023-11-21T13:43:12;10.60;99.90
8220;DHT22;4151;51.110;7.020;2023-11-21T13:45:42;10.50;99.90
8220;DHT22;4151;51.110;7.020;2023-11-21T13:48:09;10.40;99.90
8220;DHT22;4151;51.110;7.020;2023-11-21T13:50:43;10.40;99.90
8220;DHT22;4151;51.110;7.020;2023-11-21T13:53:14;10.30;99.90
8220;DHT22;4151;51.110;7.020;2023-11-21T13:55:55;10.30;99.90
8220;DHT22;4151;51.110;7.020;2023-11-21T13:58:23;10.30;99.90
8220;DHT22;4151;51.110;7.020;2023-11-21T14:00:58;10.30;99.90
8220;DHT22;4151;51.110;7.020;2023-11-21T14:03:24;10.30;99.90
8220;DHT22;4151;51.110;7.020;2023-11-21T14:05:58;10.30;99.90
8220;DHT22;4151;51.110;7.020;2023-11-21T14:08:26;10.40;99.90
8220;DHT22;4151;51.110;7.020;2023-11-21T14:10:54;10.30;99.90
8220;DHT22;4151;51.110;7.020;2023-11-21T14:13:26;10.30;99.90
8220;DHT22;4151;51.110;7.020;2023-11-21T14:15:52;10.30;99.90
8220;DHT22;4151;51.110;7.020;2023-11-21T14:18:26;10.30;99.90
8220;DHT22;4151;51.110;7.020;2023-11-21T14:21:04;10.30;99.90
8220;DHT22;4151;51.110;7.020;2023-11-21T14:23:31;10.30;99.90
8220;DHT22;4151;51.110;7.020;2023-11-21T14:25:56;10.20;99.90
8220;DHT22;4151;51.110;7.020;2023-11-21T14:28:23;10.10;99.90
8220;DHT22;4151;51.110;7.020;2023-11-21T14:30:49;10.10;99.90
8220;DHT22;4151;51.110;7.020;2023-11-21T14:33:14;10.00;99.90
8220;DHT22;4151;51.110;7.020;2023-11-21T14:35:42;9.90;99.90
8220;DHT22;4151;51.110;7.020;2023-11-21T14:38:08;9.90;99.90
8220;DHT22;4151;51.110;7.020;2023-11-21T14:40:35;9.80;99.90
8220;DHT22;4151;51.110;7.020;2023-11-21T14:43:02;9.80;99.90
8220;DHT22;4151;51.110;7.020;2023-11-21T14:45:31;9.80;99.90
8220;DHT22;4151;51.110;7.020;2023-11-21T14:47:57;9.80;99.90
8220;DHT22;4151;51.110;7.020;2023-11-21T14:50:32;9.70;99.90
8220;DHT22;4151;51.110;7.020;2023-11-21T14:53:06;9.70;99.90
8220;DHT22;4151;51.110;7.020;2023-11-21T14:55:33;9.70;99.90
8220;DHT22;4151;51.110;7.020;2023-11-21T14:58:08;9.70;99.90
8220;DHT22;4151;51.110;7.020;2023-11-21T15:00:38;9.80;99.90
8220;DHT22;4151;51.110;7.020;2023-11-21T15:03:11;9.80;99.90
8220;DHT22;4151;51.110;7.020;2023-11-21T15:05:56;9.80;99.90
8220;DHT22;4151;51.110;7.020;2023-11-21T15:08:22;9.70;99.90
8220;DHT22;4151;51.110;7.020;2023-11-21T15:10:55;9.70;99.90
8220;DHT22;4151;51.110;7.020;2023-11-21T15:13:21;9.70;99.90
8220;DHT22;4151;51.110;7.020;2023-11-21T15:15:48;9.70;99.90
8220;DHT22;4151;51.110;7.020;2023-11-21T15:18:14;9.70;99.90
8220;DHT22;4151;51.110;7.020;2023-11-21T15:20:40;9.60;99.90
8220;DHT22;4151;51.110;7.020;2023-11-21T15:23:07;9.60;99.90
8220;DHT22;4151;51.110;7.020;2023-11-21T15:25:33;9.60;99.90
8220;DHT22;4151;51.110;7.020;2023-11-21T15:28:00;9.60;99.90
8220;DHT22;4151;51.110;7.020;2023-11-21T15:30:25;9.50;99.90
8220;DHT22;4151;51.110;7.020;2023-11-21T15:32:52;9.50;99.90
8220;DHT22;4151;51.110;7.020;2023-11-21T15:35:22;9.50;99.90
8220;DHT22;4151;51.110;7.020;2023-11-21T15:37:48;9.50;99.90
8220;DHT22;4151;51.110;7.020;2023-11-21T15:40:13;9.40;99.90
8220;DHT22;4151;51.110;7.020;2023-11-21T15:42:41;9.30;99.90
8220;DHT22;4151;51.110;7.020;2023-11-21T15:45:07;9.30;99.90
8220;DHT22;4151;51.110;7.020;2023-11-21T15:47:34;9.30;99.90
8220;DHT22;4151;51.110;7.020;2023-11-21T15:50:00;9.30;99.90
8220;DHT22;4151;51.110;7.020;2023-11-21T15:52:26;9.30;99.90
8220;DHT22;4151;51.110;7.020;2023-11-21T15:54:54;9.30;99.90
8220;DHT22;4151;51.110;7.020;2023-11-21T15:57:19;9.20;99.90
8220;DHT22;4151;51.110;7.020;2023-11-21T15:59:47;9.20;99.90
8220;DHT22;4151;51.110;7.020;2023-11-21T16:02:13;9.20;99.90
8220;DHT22;4151;51.110;7.020;2023-11-21T16:04:41;9.20;99.90
8220;DHT22;4151;51.110;7.020;2023-11-21T16:07:10;9.20;99.90
8220;DHT22;4151;51.110;7.020;2023-11-21T16:09:36;9.10;99.90
8220;DHT22;4151;51.110;7.020;2023-11-21T16:12:05;9.10;99.90
8220;DHT22;4151;51.110;7.020;2023-11-21T16:14:36;9.10;99.90
8220;DHT22;4151;51.110;7.020;2023-11-21T16:17:10;9.00;99.90
8220;DHT22;4151;51.110;7.020;2023-11-21T16:19:38;9.00;99.90
8220;DHT22;4151;51.110;7.020;2023-11-21T16:22:04;9.00;99.90
8220;DHT22;4151;51.110;7.020;2023-11-21T16:24:29;9.00;99.90
8220;DHT22;4151;51.110;7.020;2023-11-21T16:26:56;9.00;99.90
8220;DHT22;4151;51.110;7.020;2023-11-21T16:29:22;9.00;99.90
8220;DHT22;4151;51.110;7.020;2023-11-21T16:31:48;9.00;99.90
8220;DHT22;4151;51.110;7.020;2023-11-21T16:34:18;8.90;99.90
8220;DHT22;4151;51.110;7.020;2023-11-21T16:36:44;8.90;99.90
8220;DHT22;4151;51.110;7.020;2023-11-21T16:39:14;8.90;99.90